sensor_id;sensor_type;location;lat;lon;timestamp;P1;durP1;ratioP1;P2;durP2;ratioP2
72235;SDS011;60146;52.498;13.462;2023-08-31T00:00:29;4.67;;;2.70;;
72235;SDS011;60146;52.498;13.462;2023-08-31T00:02:55;6.13;;;2.93;;
72235;SDS011;60146;52.498;13.462;2023-08-31T00:05:20;4.07;;;3.00;;
72235;SDS011;60146;52.498;13.462;2023-08-31T00:07:45;3.60;;;2.50;;
72235;SDS011;60146;52.498;13.462;2023-08-31T00:10:11;5.77;;;2.80;;
72235;SDS011;60146;52.498;13.462;2023-08-31T00:12:36;5.37;;;2.97;;
72235;SDS011;60146;52.498;13.462;2023-08-31T00:15:05;4.10;;;2.90;;
72235;SDS011;60146;52.498;13.462;2023-08-31T00:17:31;5.43;;;3.00;;
72235;SDS011;60146;52.498;13.462;2023-08-31T00:19:57;4.97;;;2.60;;
72235;SDS011;60146;52.498;13.462;2023-08-31T00:22:23;5.70;;;2.70;;
72235;SDS011;60146;52.498;13.462;2023-08-31T00:24:49;4.03;;;2.70;;
72235;SDS011;60146;52.498;13.462;2023-08-31T00:27:16;5.80;;;3.10;;
72235;SDS011;60146;52.498;13.462;2023-08-31T00:29:42;4.73;;;2.90;;
72235;SDS011;60146;52.498;13.462;2023-08-31T00:32:11;4.27;;;3.13;;
72235;SDS011;60146;52.498;13.462;2023-08-31T00:34:36;4.67;;;3.00;;
72235;SDS011;60146;52.498;13.462;2023-08-31T00:37:02;3.70;;;2.80;;
72235;SDS011;60146;52.498;13.462;2023-08-31T00:39:27;3.87;;;2.80;;
72235;SDS011;60146;52.498;13.462;2023-08-31T00:41:53;3.97;;;2.73;;
72235;SDS011;60146;52.498;13.462;2023-08-31T00:44:18;5.67;;;3.10;;
72235;SDS011;60146;52.498;13.462;2023-08-31T00:46:47;4.33;;;2.90;;
72235;SDS011;60146;52.498;13.462;2023-08-31T00:49:13;4.20;;;2.80;;
72235;SDS011;60146;52.498;13.462;2023-08-31T00:51:39;4.00;;;2.90;;
72235;SDS011;60146;52.498;13.462;2023-08-31T00:54:05;3.77;;;3.03;;
72235;SDS011;60146;52.498;13.462;2023-08-31T00:56:31;4.73;;;3.07;;
72235;SDS011;60146;52.498;13.462;2023-08-31T00:58:57;3.90;;;3.00;;
72235;SDS011;60146;52.498;13.462;2023-08-31T01:01:25;4.30;;;2.80;;
72235;SDS011;60146;52.498;13.462;2023-08-31T01:13:07;4.27;;;2.83;;
72235;SDS011;60146;52.498;13.462;2023-08-31T01:15:17;4.87;;;2.80;;
72235;SDS011;60146;52.498;13.462;2023-08-31T01:17:44;3.80;;;2.83;;
72235;SDS011;60146;52.498;13.462;2023-08-31T01:20:14;3.20;;;2.67;;
72235;SDS011;60146;52.498;13.462;2023-08-31T01:23:01;4.23;;;2.50;;
72235;SDS011;60146;52.498;13.462;2023-08-31T01:25:31;6.13;;;3.10;;
72235;SDS011;60146;52.498;13.462;2023-08-31T01:27:58;3.40;;;2.60;;
72235;SDS011;60146;52.498;13.462;2023-08-31T01:30:24;4.40;;;2.50;;
72235;SDS011;60146;52.498;13.462;2023-08-31T01:32:49;4.40;;;2.80;;
72235;SDS011;60146;52.498;13.462;2023-08-31T01:35:16;3.83;;;2.90;;
72235;SDS011;60146;52.498;13.462;2023-08-31T01:37:47;5.50;;;3.27;;
72235;SDS011;60146;52.498;13.462;2023-08-31T01:43:19;4.27;;;2.63;;
72235;SDS011;60146;52.498;13.462;2023-08-31T01:45:46;3.20;;;2.40;;
72235;SDS011;60146;52.498;13.462;2023-08-31T01:48:13;3.40;;;2.40;;
72235;SDS011;60146;52.498;13.462;2023-08-31T01:50:39;5.20;;;2.70;;
72235;SDS011;60146;52.498;13.462;2023-08-31T01:53:05;4.17;;;2.70;;
72235;SDS011;60146;52.498;13.462;2023-08-31T01:55:35;3.63;;;2.10;;
72235;SDS011;60146;52.498;13.462;2023-08-31T01:58:00;4.10;;;2.30;;
72235;SDS011;60146;52.498;13.462;2023-08-31T02:00:26;2.43;;;2.00;;
72235;SDS011;60146;52.498;13.462;2023-08-31T02:02:51;3.37;;;2.20;;
72235;SDS011;60146;52.498;13.462;2023-08-31T02:05:17;3.83;;;2.33;;
72235;SDS011;60146;52.498;13.462;2023-08-31T02:07:42;2.40;;;1.90;;
72235;SDS011;60146;52.498;13.462;2023-08-31T02:10:07;3.20;;;2.20;;
72235;SDS011;60146;52.498;13.462;2023-08-31T02:12:33;3.97;;;2.17;;
72235;SDS011;60146;52.498;13.462;2023-08-31T02:15:01;2.87;;;1.90;;
72235;SDS011;60146;52.498;13.462;2023-08-31T02:17:26;3.10;;;2.00;;
72235;SDS011;60146;52.498;13.462;2023-08-31T02:19:51;2.67;;;2.00;;
72235;SDS011;60146;52.498;13.462;2023-08-31T02:22:17;2.00;;;1.70;;
72235;SDS011;60146;52.498;13.462;2023-08-31T02:24:42;2.77;;;1.80;;
72235;SDS011;60146;52.498;13.462;2023-08-31T02:27:08;2.67;;;1.73;;
72235;SDS011;60146;52.498;13.462;2023-08-31T02:29:33;3.77;;;1.63;;
72235;SDS011;60146;52.498;13.462;2023-08-31T02:32:01;4.77;;;1.80;;
72235;SDS011;60146;52.498;13.462;2023-08-31T02:34:29;1.77;;;1.33;;
72235;SDS011;60146;52.498;13.462;2023-08-31T02:36:54;2.27;;;1.47;;
72235;SDS011;60146;52.498;13.462;2023-08-31T02:39:20;3.47;;;1.90;;
72235;SDS011;60146;52.498;13.462;2023-08-31T02:41:45;2.60;;;1.30;;
72235;SDS011;60146;52.498;13.462;2023-08-31T02:44:11;3.10;;;1.40;;
72235;SDS011;60146;52.498;13.462;2023-08-31T02:46:36;2.10;;;1.33;;
72235;SDS011;60146;52.498;13.462;2023-08-31T02:49:01;3.70;;;1.63;;
72235;SDS011;60146;52.498;13.462;2023-08-31T02:51:27;2.47;;;1.60;;
72235;SDS011;60146;52.498;13.462;2023-08-31T02:53:52;2.87;;;1.60;;
72235;SDS011;60146;52.498;13.462;2023-08-31T02:56:18;2.73;;;1.53;;
72235;SDS011;60146;52.498;13.462;2023-08-31T02:58:43;2.57;;;1.57;;
72235;SDS011;60146;52.498;13.462;2023-08-31T03:01:12;3.17;;;1.67;;
72235;SDS011;60146;52.498;13.462;2023-08-31T03:03:39;2.55;;;1.70;;
72235;SDS011;60146;52.498;13.462;2023-08-31T03:06:08;2.07;;;1.67;;
72235;SDS011;60146;52.498;13.462;2023-08-31T03:08:34;3.33;;;2.00;;
72235;SDS011;60146;52.498;13.462;2023-08-31T03:11:01;2.60;;;1.60;;
72235;SDS011;60146;52.498;13.462;2023-08-31T03:13:27;2.57;;;1.70;;
72235;SDS011;60146;52.498;13.462;2023-08-31T03:15:52;2.47;;;1.60;;
72235;SDS011;60146;52.498;13.462;2023-08-31T03:18:27;2.80;;;1.50;;
72235;SDS011;60146;52.498;13.462;2023-08-31T03:20:53;3.03;;;1.40;;
72235;SDS011;60146;52.498;13.462;2023-08-31T03:23:19;2.50;;;1.80;;
72235;SDS011;60146;52.498;13.462;2023-08-31T03:25:45;3.17;;;1.40;;
72235;SDS011;60146;52.498;13.462;2023-08-31T03:28:10;2.13;;;1.50;;
72235;SDS011;60146;52.498;13.462;2023-08-31T03:30:36;2.17;;;1.50;;
72235;SDS011;60146;52.498;13.462;2023-08-31T03:33:01;2.20;;;1.47;;
72235;SDS011;60146;52.498;13.462;2023-08-31T03:35:27;1.93;;;1.50;;
72235;SDS011;60146;52.498;13.462;2023-08-31T03:37:53;2.63;;;1.67;;
72235;SDS011;60146;52.498;13.462;2023-08-31T03:40:19;2.30;;;1.60;;
72235;SDS011;60146;52.498;13.462;2023-08-31T03:42:44;3.67;;;1.60;;
72235;SDS011;60146;52.498;13.462;2023-08-31T03:45:09;3.30;;;1.60;;
72235;SDS011;60146;52.498;13.462;2023-08-31T03:47:35;2.57;;;1.50;;
72235;SDS011;60146;52.498;13.462;2023-08-31T03:50:01;2.30;;;1.53;;
72235;SDS011;60146;52.498;13.462;2023-08-31T03:52:26;2.60;;;1.50;;
72235;SDS011;60146;52.498;13.462;2023-08-31T03:54:55;2.50;;;1.60;;
72235;SDS011;60146;52.498;13.462;2023-08-31T03:57:20;4.63;;;1.73;;
72235;SDS011;60146;52.498;13.462;2023-08-31T03:59:49;3.07;;;1.77;;
72235;SDS011;60146;52.498;13.462;2023-08-31T04:02:14;3.30;;;2.03;;
72235;SDS011;60146;52.498;13.462;2023-08-31T04:04:40;2.60;;;1.93;;
72235;SDS011;60146;52.498;13.462;2023-08-31T04:07:05;4.27;;;2.23;;
72235;SDS011;60146;52.498;13.462;2023-08-31T04:09:31;3.70;;;2.30;;
72235;SDS011;60146;52.498;13.462;2023-08-31T04:11:57;3.60;;;2.27;;
72235;SDS011;60146;52.498;13.462;2023-08-31T04:14:23;4.37;;;2.80;;
72235;SDS011;60146;52.498;13.462;2023-08-31T04:16:48;3.73;;;2.57;;
72235;SDS011;60146;52.498;13.462;2023-08-31T04:19:15;5.90;;;3.03;;
72235;SDS011;60146;52.498;13.462;2023-08-31T04:21:41;5.87;;;3.00;;
72235;SDS011;60146;52.498;13.462;2023-08-31T04:24:07;6.43;;;2.77;;
72235;SDS011;60146;52.498;13.462;2023-08-31T04:26:32;7.60;;;3.13;;
72235;SDS011;60146;52.498;13.462;2023-08-31T04:29:07;4.97;;;3.10;;
72235;SDS011;60146;52.498;13.462;2023-08-31T04:31:35;7.67;;;2.90;;
72235;SDS011;60146;52.498;13.462;2023-08-31T04:34:09;7.33;;;3.47;;
72235;SDS011;60146;52.498;13.462;2023-08-31T04:36:41;6.83;;;3.50;;
72235;SDS011;60146;52.498;13.462;2023-08-31T04:39:07;5.43;;;3.33;;
72235;SDS011;60146;52.498;13.462;2023-08-31T04:41:33;6.33;;;3.67;;
72235;SDS011;60146;52.498;13.462;2023-08-31T04:43:58;7.13;;;3.93;;
72235;SDS011;60146;52.498;13.462;2023-08-31T04:46:24;7.13;;;3.70;;
72235;SDS011;60146;52.498;13.462;2023-08-31T04:48:52;7.33;;;3.80;;
72235;SDS011;60146;52.498;13.462;2023-08-31T04:51:31;6.40;;;3.90;;
72235;SDS011;60146;52.498;13.462;2023-08-31T04:54:02;6.87;;;4.00;;
72235;SDS011;60146;52.498;13.462;2023-08-31T04:56:31;5.60;;;3.70;;
72235;SDS011;60146;52.498;13.462;2023-08-31T04:59:00;6.13;;;3.97;;
72235;SDS011;60146;52.498;13.462;2023-08-31T05:01:27;6.87;;;4.17;;
72235;SDS011;60146;52.498;13.462;2023-08-31T05:03:53;8.53;;;3.90;;
72235;SDS011;60146;52.498;13.462;2023-08-31T05:06:18;9.73;;;4.47;;
72235;SDS011;60146;52.498;13.462;2023-08-31T05:08:44;8.03;;;4.33;;
72235;SDS011;60146;52.498;13.462;2023-08-31T05:11:09;8.40;;;4.03;;
72235;SDS011;60146;52.498;13.462;2023-08-31T05:13:34;10.67;;;4.10;;
72235;SDS011;60146;52.498;13.462;2023-08-31T05:16:00;7.40;;;3.90;;
72235;SDS011;60146;52.498;13.462;2023-08-31T05:18:25;8.80;;;4.20;;
72235;SDS011;60146;52.498;13.462;2023-08-31T05:20:51;8.63;;;3.90;;
72235;SDS011;60146;52.498;13.462;2023-08-31T05:23:19;7.50;;;3.63;;
72235;SDS011;60146;52.498;13.462;2023-08-31T05:25:45;7.70;;;4.30;;
72235;SDS011;60146;52.498;13.462;2023-08-31T05:28:11;7.67;;;4.50;;
72235;SDS011;60146;52.498;13.462;2023-08-31T05:30:37;8.90;;;4.53;;
72235;SDS011;60146;52.498;13.462;2023-08-31T05:33:11;9.63;;;4.77;;
72235;SDS011;60146;52.498;13.462;2023-08-31T05:35:36;7.87;;;4.40;;
72235;SDS011;60146;52.498;13.462;2023-08-31T05:38:01;10.30;;;4.80;;
72235;SDS011;60146;52.498;13.462;2023-08-31T05:40:30;7.57;;;4.20;;
72235;SDS011;60146;52.498;13.462;2023-08-31T05:42:56;8.00;;;4.60;;
72235;SDS011;60146;52.498;13.462;2023-08-31T05:45:21;8.70;;;4.90;;
72235;SDS011;60146;52.498;13.462;2023-08-31T05:47:46;8.73;;;4.77;;
72235;SDS011;60146;52.498;13.462;2023-08-31T05:50:12;10.57;;;4.73;;
72235;SDS011;60146;52.498;13.462;2023-08-31T05:52:37;10.43;;;5.00;;
72235;SDS011;60146;52.498;13.462;2023-08-31T05:55:03;8.03;;;4.47;;
72235;SDS011;60146;52.498;13.462;2023-08-31T05:57:28;7.93;;;4.57;;
72235;SDS011;60146;52.498;13.462;2023-08-31T05:59:54;8.07;;;4.30;;
72235;SDS011;60146;52.498;13.462;2023-08-31T06:02:19;9.13;;;5.00;;
72235;SDS011;60146;52.498;13.462;2023-08-31T06:04:44;9.23;;;4.73;;
72235;SDS011;60146;52.498;13.462;2023-08-31T06:07:13;10.53;;;5.10;;
72235;SDS011;60146;52.498;13.462;2023-08-31T06:09:47;9.60;;;4.60;;
72235;SDS011;60146;52.498;13.462;2023-08-31T06:12:13;8.10;;;4.53;;
72235;SDS011;60146;52.498;13.462;2023-08-31T06:14:38;7.10;;;4.53;;
72235;SDS011;60146;52.498;13.462;2023-08-31T06:17:04;10.43;;;4.43;;
72235;SDS011;60146;52.498;13.462;2023-08-31T06:19:40;8.77;;;4.70;;
72235;SDS011;60146;52.498;13.462;2023-08-31T06:22:09;9.15;;;4.40;;
72235;SDS011;60146;52.498;13.462;2023-08-31T06:24:34;7.47;;;4.57;;
72235;SDS011;60146;52.498;13.462;2023-08-31T06:27:04;7.40;;;4.30;;
72235;SDS011;60146;52.498;13.462;2023-08-31T06:29:29;6.80;;;4.03;;
72235;SDS011;60146;52.498;13.462;2023-08-31T06:31:55;7.60;;;4.40;;
72235;SDS011;60146;52.498;13.462;2023-08-31T06:34:20;7.47;;;4.30;;
72235;SDS011;60146;52.498;13.462;2023-08-31T06:36:45;6.87;;;4.30;;
72235;SDS011;60146;52.498;13.462;2023-08-31T06:39:11;10.00;;;4.40;;
72235;SDS011;60146;52.498;13.462;2023-08-31T06:41:36;10.07;;;4.60;;
72235;SDS011;60146;52.498;13.462;2023-08-31T06:44:02;8.07;;;4.40;;
72235;SDS011;60146;52.498;13.462;2023-08-31T06:46:29;9.27;;;4.60;;
72235;SDS011;60146;52.498;13.462;2023-08-31T06:48:55;8.27;;;4.30;;
72235;SDS011;60146;52.498;13.462;2023-08-31T06:51:20;7.53;;;4.10;;
72235;SDS011;60146;52.498;13.462;2023-08-31T06:53:46;8.63;;;4.60;;
72235;SDS011;60146;52.498;13.462;2023-08-31T06:56:11;9.47;;;4.10;;
72235;SDS011;60146;52.498;13.462;2023-08-31T06:58:36;7.87;;;4.43;;
72235;SDS011;60146;52.498;13.462;2023-08-31T07:01:05;8.03;;;4.53;;
72235;SDS011;60146;52.498;13.462;2023-08-31T07:03:31;7.30;;;3.90;;
72235;SDS011;60146;52.498;13.462;2023-08-31T07:05:56;11.40;;;4.60;;
72235;SDS011;60146;52.498;13.462;2023-08-31T07:08:21;10.23;;;4.40;;
72235;SDS011;60146;52.498;13.462;2023-08-31T07:10:47;9.47;;;4.20;;
72235;SDS011;60146;52.498;13.462;2023-08-31T07:13:15;6.10;;;4.00;;
72235;SDS011;60146;52.498;13.462;2023-08-31T07:15:40;8.13;;;4.57;;
72235;SDS011;60146;52.498;13.462;2023-08-31T07:18:06;6.07;;;3.80;;
72235;SDS011;60146;52.498;13.462;2023-08-31T07:20:32;11.60;;;4.00;;
72235;SDS011;60146;52.498;13.462;2023-08-31T07:22:58;8.10;;;4.23;;
72235;SDS011;60146;52.498;13.462;2023-08-31T07:25:24;8.07;;;3.87;;
72235;SDS011;60146;52.498;13.462;2023-08-31T07:27:49;7.53;;;3.60;;
72235;SDS011;60146;52.498;13.462;2023-08-31T07:30:15;12.07;;;3.60;;
72235;SDS011;60146;52.498;13.462;2023-08-31T07:32:40;7.60;;;3.33;;
72235;SDS011;60146;52.498;13.462;2023-08-31T07:35:06;6.73;;;3.30;;
72235;SDS011;60146;52.498;13.462;2023-08-31T07:37:32;6.90;;;3.60;;
72235;SDS011;60146;52.498;13.462;2023-08-31T07:39:57;6.07;;;3.07;;
72235;SDS011;60146;52.498;13.462;2023-08-31T07:42:22;6.53;;;3.53;;
72235;SDS011;60146;52.498;13.462;2023-08-31T07:44:48;6.13;;;3.67;;
72235;SDS011;60146;52.498;13.462;2023-08-31T07:47:13;8.33;;;3.70;;
72235;SDS011;60146;52.498;13.462;2023-08-31T07:49:38;7.83;;;4.20;;
72235;SDS011;60146;52.498;13.462;2023-08-31T07:52:04;5.70;;;3.40;;
72235;SDS011;60146;52.498;13.462;2023-08-31T07:54:29;6.43;;;3.20;;
72235;SDS011;60146;52.498;13.462;2023-08-31T07:56:55;6.07;;;3.40;;
72235;SDS011;60146;52.498;13.462;2023-08-31T07:59:20;7.57;;;3.23;;
72235;SDS011;60146;52.498;13.462;2023-08-31T08:01:47;6.03;;;3.30;;
72235;SDS011;60146;52.498;13.462;2023-08-31T08:04:12;5.57;;;3.10;;
72235;SDS011;60146;52.498;13.462;2023-08-31T08:06:38;6.13;;;3.07;;
72235;SDS011;60146;52.498;13.462;2023-08-31T08:09:03;6.40;;;2.83;;
72235;SDS011;60146;52.498;13.462;2023-08-31T08:11:29;4.10;;;2.60;;
72235;SDS011;60146;52.498;13.462;2023-08-31T08:13:55;5.53;;;2.50;;
72235;SDS011;60146;52.498;13.462;2023-08-31T08:16:20;3.63;;;2.30;;
72235;SDS011;60146;52.498;13.462;2023-08-31T08:18:45;4.40;;;2.30;;
72235;SDS011;60146;52.498;13.462;2023-08-31T08:21:11;8.30;;;2.77;;
72235;SDS011;60146;52.498;13.462;2023-08-31T08:23:36;5.40;;;2.30;;
72235;SDS011;60146;52.498;13.462;2023-08-31T08:26:02;4.00;;;2.30;;
72235;SDS011;60146;52.498;13.462;2023-08-31T08:28:27;6.40;;;2.33;;
72235;SDS011;60146;52.498;13.462;2023-08-31T08:30:55;4.13;;;2.07;;
72235;SDS011;60146;52.498;13.462;2023-08-31T08:33:21;3.80;;;2.10;;
72235;SDS011;60146;52.498;13.462;2023-08-31T08:35:46;4.20;;;2.10;;
72235;SDS011;60146;52.498;13.462;2023-08-31T08:38:11;4.17;;;2.23;;
72235;SDS011;60146;52.498;13.462;2023-08-31T08:40:37;6.00;;;2.20;;
72235;SDS011;60146;52.498;13.462;2023-08-31T08:43:05;2.97;;;1.57;;
72235;SDS011;60146;52.498;13.462;2023-08-31T08:45:35;3.70;;;1.90;;
72235;SDS011;60146;52.498;13.462;2023-08-31T08:48:04;2.90;;;1.40;;
72235;SDS011;60146;52.498;13.462;2023-08-31T08:50:31;3.83;;;1.55;;
72235;SDS011;60146;52.498;13.462;2023-08-31T08:52:58;3.85;;;1.23;;
72235;SDS011;60146;52.498;13.462;2023-08-31T08:55:24;2.03;;;1.08;;
72235;SDS011;60146;52.498;13.462;2023-08-31T08:57:49;2.58;;;1.15;;
72235;SDS011;60146;52.498;13.462;2023-08-31T09:00:15;8.65;;;1.45;;
72235;SDS011;60146;52.498;13.462;2023-08-31T09:02:40;4.07;;;1.20;;
72235;SDS011;60146;52.498;13.462;2023-08-31T09:05:06;4.00;;;0.90;;
72235;SDS011;60146;52.498;13.462;2023-08-31T09:07:34;4.35;;;1.67;;
72235;SDS011;60146;52.498;13.462;2023-08-31T09:10:01;1.83;;;1.23;;
72235;SDS011;60146;52.498;13.462;2023-08-31T09:12:28;3.13;;;1.40;;
72235;SDS011;60146;52.498;13.462;2023-08-31T09:15:00;3.05;;;1.45;;
72235;SDS011;60146;52.498;13.462;2023-08-31T09:17:36;4.80;;;1.60;;
72235;SDS011;60146;52.498;13.462;2023-08-31T09:20:03;3.58;;;1.20;;
72235;SDS011;60146;52.498;13.462;2023-08-31T09:22:29;3.05;;;1.40;;
72235;SDS011;60146;52.498;13.462;2023-08-31T09:24:54;1.73;;;1.13;;
72235;SDS011;60146;52.498;13.462;2023-08-31T09:27:20;2.90;;;1.25;;
72235;SDS011;60146;52.498;13.462;2023-08-31T09:29:46;3.22;;;1.10;;
72235;SDS011;60146;52.498;13.462;2023-08-31T09:32:18;3.85;;;0.90;;
72235;SDS011;60146;52.498;13.462;2023-08-31T09:34:43;4.60;;;1.20;;
72235;SDS011;60146;52.498;13.462;2023-08-31T09:37:10;1.15;;;1.00;;
72235;SDS011;60146;52.498;13.462;2023-08-31T09:39:41;1.58;;;1.10;;
72235;SDS011;60146;52.498;13.462;2023-08-31T09:42:07;2.75;;;1.27;;
72235;SDS011;60146;52.498;13.462;2023-08-31T09:44:33;3.95;;;1.45;;
72235;SDS011;60146;52.498;13.462;2023-08-31T09:46:58;6.50;;;1.25;;
72235;SDS011;60146;52.498;13.462;2023-08-31T09:49:25;3.33;;;1.10;;
72235;SDS011;60146;52.498;13.462;2023-08-31T09:51:50;2.28;;;1.13;;
72235;SDS011;60146;52.498;13.462;2023-08-31T09:54:17;2.67;;;1.05;;
72235;SDS011;60146;52.498;13.462;2023-08-31T09:56:45;4.55;;;1.58;;
72235;SDS011;60146;52.498;13.462;2023-08-31T09:59:12;2.50;;;1.00;;
72235;SDS011;60146;52.498;13.462;2023-08-31T10:01:42;2.08;;;0.95;;
72235;SDS011;60146;52.498;13.462;2023-08-31T10:04:10;2.75;;;1.05;;
72235;SDS011;60146;52.498;13.462;2023-08-31T10:06:40;2.00;;;1.00;;
72235;SDS011;60146;52.498;13.462;2023-08-31T10:09:06;2.90;;;0.85;;
72235;SDS011;60146;52.498;13.462;2023-08-31T10:11:34;2.72;;;0.80;;
72235;SDS011;60146;52.498;13.462;2023-08-31T10:14:02;6.47;;;0.98;;
72235;SDS011;60146;52.498;13.462;2023-08-31T10:16:29;2.03;;;0.90;;
72235;SDS011;60146;52.498;13.462;2023-08-31T10:18:55;2.08;;;1.00;;
72235;SDS011;60146;52.498;13.462;2023-08-31T10:21:21;1.77;;;0.77;;
72235;SDS011;60146;52.498;13.462;2023-08-31T10:23:48;3.20;;;0.82;;
72235;SDS011;60146;52.498;13.462;2023-08-31T10:26:26;2.03;;;0.80;;
72235;SDS011;60146;52.498;13.462;2023-08-31T10:28:53;2.47;;;0.85;;
72235;SDS011;60146;52.498;13.462;2023-08-31T10:31:20;0.82;;;0.63;;
72235;SDS011;60146;52.498;13.462;2023-08-31T10:33:55;1.88;;;0.55;;
72235;SDS011;60146;52.498;13.462;2023-08-31T10:36:22;1.13;;;0.60;;
72235;SDS011;60146;52.498;13.462;2023-08-31T10:39:19;3.53;;;1.10;;
72235;SDS011;60146;52.498;13.462;2023-08-31T10:41:51;3.10;;;1.10;;
72235;SDS011;60146;52.498;13.462;2023-08-31T10:44:21;2.85;;;1.00;;
72235;SDS011;60146;52.498;13.462;2023-08-31T10:46:48;2.85;;;1.00;;
72235;SDS011;60146;52.498;13.462;2023-08-31T10:49:14;3.47;;;1.00;;
72235;SDS011;60146;52.498;13.462;2023-08-31T10:51:45;3.97;;;1.20;;
72235;SDS011;60146;52.498;13.462;2023-08-31T10:54:20;2.72;;;1.02;;
72235;SDS011;60146;52.498;13.462;2023-08-31T10:59:16;2.27;;;1.00;;
72235;SDS011;60146;52.498;13.462;2023-08-31T11:01:51;1.90;;;1.10;;
72235;SDS011;60146;52.498;13.462;2023-08-31T11:04:27;3.03;;;1.00;;
72235;SDS011;60146;52.498;13.462;2023-08-31T11:09:44;3.23;;;1.10;;
72235;SDS011;60146;52.498;13.462;2023-08-31T11:12:11;3.10;;;1.20;;
72235;SDS011;60146;52.498;13.462;2023-08-31T11:14:36;3.93;;;1.33;;
72235;SDS011;60146;52.498;13.462;2023-08-31T11:17:03;3.50;;;1.27;;
72235;SDS011;60146;52.498;13.462;2023-08-31T11:19:30;3.83;;;1.10;;
72235;SDS011;60146;52.498;13.462;2023-08-31T11:21:56;4.07;;;1.30;;
72235;SDS011;60146;52.498;13.462;2023-08-31T11:24:21;3.67;;;1.05;;
72235;SDS011;60146;52.498;13.462;2023-08-31T11:26:50;3.45;;;1.30;;
72235;SDS011;60146;52.498;13.462;2023-08-31T11:29:16;2.13;;;1.00;;
72235;SDS011;60146;52.498;13.462;2023-08-31T11:31:42;2.30;;;1.00;;
72235;SDS011;60146;52.498;13.462;2023-08-31T11:34:14;3.35;;;1.00;;
72235;SDS011;60146;52.498;13.462;2023-08-31T11:36:41;2.78;;;0.90;;
72235;SDS011;60146;52.498;13.462;2023-08-31T11:39:07;2.83;;;1.20;;
72235;SDS011;60146;52.498;13.462;2023-08-31T11:41:33;3.33;;;1.20;;
72235;SDS011;60146;52.498;13.462;2023-08-31T11:44:01;3.22;;;1.05;;
72235;SDS011;60146;52.498;13.462;2023-08-31T11:46:28;2.60;;;1.00;;
72235;SDS011;60146;52.498;13.462;2023-08-31T11:48:54;3.58;;;1.25;;
72235;SDS011;60146;52.498;13.462;2023-08-31T11:51:19;2.88;;;0.85;;
72235;SDS011;60146;52.498;13.462;2023-08-31T11:53:45;3.22;;;0.90;;
72235;SDS011;60146;52.498;13.462;2023-08-31T11:56:12;1.30;;;0.80;;
72235;SDS011;60146;52.498;13.462;2023-08-31T11:58:40;2.05;;;0.90;;
72235;SDS011;60146;52.498;13.462;2023-08-31T12:01:11;2.50;;;1.00;;
72235;SDS011;60146;52.498;13.462;2023-08-31T12:03:43;2.22;;;1.00;;
72235;SDS011;60146;52.498;13.462;2023-08-31T12:06:09;5.55;;;1.40;;
72235;SDS011;60146;52.498;13.462;2023-08-31T12:08:36;5.97;;;1.85;;
72235;SDS011;60146;52.498;13.462;2023-08-31T12:11:02;7.78;;;2.35;;
72235;SDS011;60146;52.498;13.462;2023-08-31T12:13:27;5.65;;;1.80;;
72235;SDS011;60146;52.498;13.462;2023-08-31T12:15:57;10.10;;;2.65;;
72235;SDS011;60146;52.498;13.462;2023-08-31T12:18:22;12.73;;;2.97;;
72235;SDS011;60146;52.498;13.462;2023-08-31T12:20:51;5.78;;;1.98;;
72235;SDS011;60146;52.498;13.462;2023-08-31T12:23:18;4.85;;;1.63;;
72235;SDS011;60146;52.498;13.462;2023-08-31T12:25:55;4.60;;;1.70;;
72235;SDS011;60146;52.498;13.462;2023-08-31T12:28:21;6.28;;;2.25;;
72235;SDS011;60146;52.498;13.462;2023-08-31T12:30:48;3.10;;;1.50;;
72235;SDS011;60146;52.498;13.462;2023-08-31T12:33:16;3.03;;;1.20;;
72235;SDS011;60146;52.498;13.462;2023-08-31T12:35:42;5.30;;;1.30;;
72235;SDS011;60146;52.498;13.462;2023-08-31T12:38:08;2.15;;;1.20;;
72235;SDS011;60146;52.498;13.462;2023-08-31T12:40:33;2.38;;;1.10;;
72235;SDS011;60146;52.498;13.462;2023-08-31T12:42:58;3.10;;;1.70;;
72235;SDS011;60146;52.498;13.462;2023-08-31T12:45:24;2.70;;;1.42;;
72235;SDS011;60146;52.498;13.462;2023-08-31T12:47:49;1.85;;;1.27;;
72235;SDS011;60146;52.498;13.462;2023-08-31T12:50:15;3.30;;;1.42;;
72235;SDS011;60146;52.498;13.462;2023-08-31T12:52:43;3.70;;;1.95;;
72235;SDS011;60146;52.498;13.462;2023-08-31T12:55:15;4.90;;;1.60;;
72235;SDS011;60146;52.498;13.462;2023-08-31T12:57:41;3.60;;;1.77;;
72235;SDS011;60146;52.498;13.462;2023-08-31T13:00:07;3.28;;;1.50;;
72235;SDS011;60146;52.498;13.462;2023-08-31T13:02:39;2.05;;;1.23;;
72235;SDS011;60146;52.498;13.462;2023-08-31T13:05:06;10.02;;;1.10;;
72235;SDS011;60146;52.498;13.462;2023-08-31T13:07:33;2.40;;;1.10;;
72235;SDS011;60146;52.498;13.462;2023-08-31T13:10:00;2.50;;;1.10;;
72235;SDS011;60146;52.498;13.462;2023-08-31T13:12:28;2.90;;;1.02;;
72235;SDS011;60146;52.498;13.462;2023-08-31T13:14:54;1.67;;;1.00;;
72235;SDS011;60146;52.498;13.462;2023-08-31T13:17:19;1.60;;;0.90;;
72235;SDS011;60146;52.498;13.462;2023-08-31T13:19:45;2.08;;;0.82;;
72235;SDS011;60146;52.498;13.462;2023-08-31T13:22:10;2.92;;;0.88;;
72235;SDS011;60146;52.498;13.462;2023-08-31T13:24:40;3.95;;;0.98;;
72235;SDS011;60146;52.498;13.462;2023-08-31T13:27:05;1.15;;;0.70;;
72235;SDS011;60146;52.498;13.462;2023-08-31T13:29:32;1.23;;;0.85;;
72235;SDS011;60146;52.498;13.462;2023-08-31T13:32:01;3.40;;;1.05;;
72235;SDS011;60146;52.498;13.462;2023-08-31T13:34:26;2.38;;;0.80;;
72235;SDS011;60146;52.498;13.462;2023-08-31T13:36:51;2.67;;;1.10;;
72235;SDS011;60146;52.498;13.462;2023-08-31T13:39:17;1.00;;;0.90;;
72235;SDS011;60146;52.498;13.462;2023-08-31T13:41:42;2.28;;;0.90;;
72235;SDS011;60146;52.498;13.462;2023-08-31T13:44:07;4.10;;;0.90;;
72235;SDS011;60146;52.498;13.462;2023-08-31T13:46:32;2.45;;;1.15;;
72235;SDS011;60146;52.498;13.462;2023-08-31T13:48:58;2.08;;;1.27;;
72235;SDS011;60146;52.498;13.462;2023-08-31T13:51:23;1.27;;;1.10;;
72235;SDS011;60146;52.498;13.462;2023-08-31T13:53:49;1.90;;;1.13;;
72235;SDS011;60146;52.498;13.462;2023-08-31T13:56:14;2.78;;;1.10;;
72235;SDS011;60146;52.498;13.462;2023-08-31T13:58:39;3.20;;;1.30;;
72235;SDS011;60146;52.498;13.462;2023-08-31T14:01:06;1.27;;;1.00;;
72235;SDS011;60146;52.498;13.462;2023-08-31T14:03:31;1.35;;;1.00;;
72235;SDS011;60146;52.498;13.462;2023-08-31T14:05:57;1.35;;;1.08;;
72235;SDS011;60146;52.498;13.462;2023-08-31T14:08:22;1.90;;;1.58;;
72235;SDS011;60146;52.498;13.462;2023-08-31T14:10:49;4.77;;;1.10;;
72235;SDS011;60146;52.498;13.462;2023-08-31T14:13:14;1.63;;;1.10;;
72235;SDS011;60146;52.498;13.462;2023-08-31T14:16:07;1.63;;;1.07;;
72235;SDS011;60146;52.498;13.462;2023-08-31T14:19:12;1.65;;;1.52;;
72235;SDS011;60146;52.498;13.462;2023-08-31T14:22:14;2.23;;;0.90;;
72235;SDS011;60146;52.498;13.462;2023-08-31T14:24:40;2.07;;;1.00;;
72235;SDS011;60146;52.498;13.462;2023-08-31T14:27:09;1.20;;;0.90;;
72235;SDS011;60146;52.498;13.462;2023-08-31T14:29:34;0.97;;;0.83;;
72235;SDS011;60146;52.498;13.462;2023-08-31T14:32:08;2.10;;;0.90;;
72235;SDS011;60146;52.498;13.462;2023-08-31T14:34:34;2.13;;;0.80;;
72235;SDS011;60146;52.498;13.462;2023-08-31T14:36:59;5.57;;;0.90;;
72235;SDS011;60146;52.498;13.462;2023-08-31T14:39:25;1.50;;;1.00;;
72235;SDS011;60146;52.498;13.462;2023-08-31T14:41:54;2.38;;;0.77;;
72235;SDS011;60146;52.498;13.462;2023-08-31T14:44:21;1.23;;;0.77;;
72235;SDS011;60146;52.498;13.462;2023-08-31T14:46:47;0.80;;;0.60;;
72235;SDS011;60146;52.498;13.462;2023-08-31T14:49:12;1.47;;;0.60;;